Have a Safe July 4th! 

Flight Track Log - Related Links

Times and Time Zones

All times are in EDT time to prevent confusion due to time zone crossing. See the SKW6492 flight status page for this flight to view local times or setup timezone preferences in your user account.

Time Position Orientation Groundspeed Altitude Reporting Facility
EDT Latitude Longitude Course Direction KTS MPH feet Rate Location/Type
Sat 09:34:35 PM 39.8833 -104.5833 346° North 182 209 6,800  Level Denver TRACON
Sat 09:35:29 PM 39.9000 -104.5000 75° East 245 282 9,000 2,263 Climbing Denver TRACON
Sat 09:36:29 PM 39.9333 -104.4167 62° Northeast 298 343 11,100 2,300 Climbing Denver TRACON
Sat 09:37:00 PM 40.2180 -104.9793 346° North  Level Estimated
Sat 09:37:29 PM 40.0000 -104.3833 21° North 309 356 13,600  Level Denver TRACON
Sat 09:38:00 PM 40.3069 -105.0564 348° North  Level Estimated
Sat 09:39:00 PM 40.3958 -105.1336 346° North  Level Estimated
Sat 09:39:13 PM 40.1428 -104.4617 337° Northwest 322 371 16,900  Level Denver Center
Sat 09:40:14 PM 40.2153 -104.5300 324° Northwest 324 373 18,500 1,426 Climbing Denver Center
Sat 09:41:15 PM 40.2900 -104.5992 325° Northwest 329 379 19,800 1,426 Climbing Denver Center
Sat 09:42:16 PM 40.3872 -104.6547 336° Northwest 354 407 21,400 1,377 Climbing Denver Center
Sat 09:43:17 PM 40.4786 -104.7003 339° North 356 410 22,600 1,131 Climbing Denver Center
Sat 09:44:18 PM 40.5753 -104.7467 340° North 369 425 23,700 984 Climbing Denver Center
Sat 09:45:19 PM 40.6767 -104.7972 339° North 376 433 24,600 885 Climbing Denver Center
Sat 09:46:20 PM 40.7747 -104.8411 341° North 372 428 25,500 878 Climbing Denver Center
Sat 09:47:22 PM 40.8772 -104.8922 339° North 390 449 26,400 829 Climbing Denver Center
Sat 09:48:23 PM 40.9794 -104.9439 339° North 394 453 27,200 738 Climbing Denver Center
Sat 09:49:24 PM 41.0847 -104.9936 340° North 397 457 27,900 738 Climbing Denver Center
Sat 09:50:25 PM 41.1858 -105.0450 339° North 403 464 28,700 689 Climbing Denver Center
Sat 09:51:26 PM 41.3044 -105.1044 339° North 409 471 29,300 541 Climbing Denver Center
Sat 09:52:27 PM 41.4078 -105.1550 340° North 414 476 29,800 738 Climbing Denver Center
Sat 09:53:28 PM 41.5281 -105.2178 339° North 414 476 30,800 934 Climbing Denver Center
Sat 09:54:29 PM 41.6144 -105.2914 328° Northwest 390 449 31,700 590 Climbing Denver Center
Sat 09:55:30 PM 41.6944 -105.3742 322° Northwest 380 437 32,000 148 Climbing Denver Center
Sat 09:56:31 PM 41.7886 -105.4778 321° Northwest 389 448 32,000  Level Denver Center
Sat 09:57:32 PM 41.8733 -105.5694 321° Northwest 403 464 32,000  Level Denver Center
Sat 09:58:34 PM 41.9581 -105.6628 321° Northwest 409 471 32,000  Level Denver Center
Sat 09:59:35 PM 42.0597 -105.7733 321° Northwest 417 480 32,000  Level Denver Center
Sat 10:00:36 PM 42.1439 -105.8675 320° Northwest 411 473 32,000  Level Denver Center
Sat 10:01:37 PM 42.2303 -105.9619 321° Northwest 415 478 32,000  Level Denver Center
Sat 10:02:38 PM 42.3289 -106.0722 320° Northwest 413 475 32,000  Level Denver Center
Sat 10:03:38 PM 42.4131 -106.1656 321° Northwest 408 470 32,000  Level Denver Center
Sat 10:04:39 PM 42.4953 -106.2589 320° Northwest 405 466 32,000  Level Denver Center
Sat 10:05:40 PM 42.5925 -106.3667 321° Northwest 404 465 32,000  Level Denver Center
Sat 10:06:41 PM 42.6750 -106.4594 320° Northwest 403 464 32,000  Level Denver Center
Sat 10:07:42 PM 42.7581 -106.5531 320° Northwest 403 464 32,000  Level Denver Center
Sat 10:08:43 PM 42.8536 -106.6617 320° Northwest 403 464 32,000  Level Denver Center
Sat 10:09:44 PM 42.9386 -106.7564 321° Northwest 410 472 32,000  Level Denver Center
Sat 10:10:45 PM 43.0208 -106.8528 319° Northwest 408 470 32,000  Level Denver Center
Sat 10:11:46 PM 43.1186 -106.9653 320° Northwest 411 473 32,000  Level Denver Center
Sat 10:12:47 PM 43.1953 -107.0533 320° Northwest 414 476 32,000  Level Denver Center
Sat 10:13:48 PM 43.2997 -107.1753 320° Northwest 412 474 32,000  Level Denver Center
Sat 10:14:48 PM 43.3883 -107.2756 321° Northwest 414 476 32,000  Level Denver Center
Sat 10:15:49 PM 43.4753 -107.3783 319° Northwest 413 475 32,000  Level Denver Center
Sat 10:16:54 PM 43.5625 -107.4822 319° Northwest 414 476 32,000  Level Salt Lake Center
Sat 10:17:55 PM 43.6508 -107.5867 319° Northwest 417 480 32,000 -98 Level Salt Lake Center
Sat 10:18:56 PM 43.7403 -107.6919 320° Northwest 421 484 31,800 -1,623 Descending Salt Lake Center
Sat 10:19:57 PM 43.8281 -107.7964 319° Northwest 418 481 28,700 -2,951 Descending Salt Lake Center
Sat 10:20:58 PM 43.9150 -107.8967 320° Northwest 407 468 25,800 -2,951 Descending Salt Lake Center
Sat 10:21:59 PM 43.9978 -108.0056 317° Northwest 409 471 22,700 -3,000 Descending Salt Lake Center
Sat 10:23:00 PM 44.0739 -108.1214 312° West 406 467 19,700 -3,197 Descending Salt Lake Center
Sat 10:24:01 PM 44.1647 -108.2619 312° West 407 468 16,200 -3,197 Descending Salt Lake Center
Sat 10:25:02 PM 44.2356 -108.3697 313° West 396 456 13,200 -2,557 Descending Salt Lake Center
Sat 10:26:03 PM 44.3039 -108.4742 312° West 382 440 11,000 -1,672 Descending Salt Lake Center
Sat 10:27:04 PM 44.3622 -108.5647 312° West 351 404 9,800 -984 Descending Salt Lake Center
Sat 10:28:05 PM 44.4150 -108.6433 313° West 308 354 9,000 -393 Descending Salt Lake Center
Sat 10:29:06 PM 44.4672 -108.7261 311° West 291 335 9,000 -49 Level Salt Lake Center
Sat 10:30:08 PM 44.5181 -108.8033 313° West 282 325 8,900 -683 Descending Salt Lake Center
Sat 10:31:09 PM 44.5603 -108.8689 312° West 259 298 7,600 -1,279 Descending Salt Lake Center

Login

Don't have an account? Register now (free) for customized features, flight alerts, and more!